Terminal Aerodrome Forecast
Issued by NWS Charleston, WV

Current Version | Previous Version | Graphics & Text | Print | Product List | Glossary On
Versions: 1 2 3 4 5 6 7 8 9 10 11 12 13 14 15 16 17 18 19 20 21 22 23 24 25 26 27 28
000
FTUS41 KRLX 051151 CCA
TAFPKB
TAF COR
KPKB 051151Z 0512/0612 00000KT 1/4SM FG BKN001
      TEMPO 0512/0513 2SM BR BKN002
     FM051300 09003KT 3SM BR SCT002 SCT150
     FM051330 09003KT P6SM SCT150
     FM051700 10004KT P6SM BKN060
     FM060700 00000KT 6SM BR BKN060
     FM060900 00000KT 3SM BR BKN060=

USA.gov is the U.S. government's official web portal to all federal, state and local government web resources and services.